Healy, AK (99743)

2:05 AM AKDT on August 20, 2017 (GMT -0800)
Subdivision - Sulfide (Tench) | | Change Station

Elev 1374 ft 63.87 °N, 148.99 °W | Updated 2 seconds ago

Overcast
Overcast
41.2 °F
Feels Like 41 °F
N
0.0
Wind Variable Wind from SSE
Gusts 0.0 mph

Today
High -- | Low -- °F
--% Chance of Precip.
Yesterday
High -- | Low -- °F
Precip. -- in
Pressure 29.81 in
Visibility 10.0 miles
Clouds Mostly Cloudy 2600 ft
Overcast 5000 ft
Windchill 41 °F
Dew Point 41 °F
Humidity 98%
Rainfall 0.05 in
Snow Depth Not available.
6:05 AM 9:50 PM
Waning Crescent, 2% visible
METAR PAIN 200956Z AUTO 36004KT 10SM BKN026 OVC050 06/04 A2974 RMK AO2 SLP092 T00560044
Pressure 29.81 in
Visibility 10.0 miles
Clouds Mostly Cloudy 2600 ft
Overcast 5000 ft
Windchill 41 °F
Dew Point 41 °F
Humidity 98%
Rainfall 0.05 in
Snow Depth Not available.
6:05 AM 9:50 PM
Waning Crescent, 2% visible
METAR PAIN 200956Z AUTO 36004KT 10SM BKN026 OVC050 06/04 A2974 RMK AO2 SLP092 T00560044

Get Severe Weather Alerts

Thanks for signing up!

Be on the lookout for a verification email in your inbox.

You'll start receiving the daily forecast at 6 AM.

×

10-Day Weather Forecast

Almanac

Astronomy

Aug. 20, 2017 Rise Set
Actual Time
Civil Twilight
Nautical Twilight
Astronomical Twilight
Moon
Length of Visible Light
Length of Day
Tomorrow will be .
, % of the Moon is Illuminated

Today's Extremes

State Highs State Lows

Community

WunderPhotos

Category 6

Welcome to Category 6. This is the collective home for Weather Underground's featured writeups by Dr. Jeff Masters (right), Bob Henson (left), Chris Burt, and other regular contributors.

Nearby

Air Quality

  Air Quality AQ Index Pollutant
Not available.

Snow Depth

Station Depth Elevation

Earthquake Activity

City Distance Mag. Time & Date
Minimum magnitude displayed is 2.5.

Coastal Water Temperatures

Place Temperature

Stations

Nearby Weather Stations

Station Location Temp. Windchill Dew Point Humidity Wind Precip. Elev Updated Type
                   

Watches & Warnings

There are currently no watches in effect.